Time;durP1;ratioP1;P1;durP2;ratioP2;P2;SDS_P1;SDS_P2;PMS_P1;PMS_P2;Temp;Humidity;BMP_temperature;BMP_pressure;BME280_temperature;BME280_humidity;BME280_pressure;Samples;Min_cycle;Max_cycle;Signal;HPM_P1;HPM_P2
2021/01/07 03:47:38;;;;;;;23.15;11.07;;;0.70;99.60;;;;;;4912779;28;87022;-88
2021/01/07 03:50:05;;;;;;;29.00;11.75;;;0.90;99.90;;;;;;4934170;28;86823;-88
2021/01/07 03:52:30;;;;;;;26.42;12.25;;;0.60;99.90;;;;;;4929426;28;88985;-87
2021/01/07 03:54:57;;;;;;;26.55;11.02;;;0.60;99.50;;;;;;4928627;28;87486;-86
2021/01/07 03:57:24;;;;;;;26.05;11.10;;;0.50;99.90;;;;;;4936924;28;86932;-88
2021/01/07 03:59:51;;;;;;;21.08;10.27;;;0.50;99.90;;;;;;4934538;28;86370;-88
2021/01/07 04:02:16;;;;;;;24.10;10.75;;;0.50;99.90;;;;;;4911067;28;91148;-88
2021/01/07 04:04:42;;;;;;;25.10;11.90;;;;;;;;;;4928095;28;87153;-87
2021/01/07 04:07:08;;;;;;;24.92;10.70;;;0.60;99.60;;;;;;4929777;28;87521;-86
2021/01/07 04:10:03;;;;;;;26.13;10.65;;;0.60;99.90;;;;;;4946965;28;86928;-84
2021/01/07 04:12:29;;;;;;;18.58;8.50;;;0.60;98.20;;;;;;4946402;28;87062;-85
2021/01/07 04:14:55;;;;;;;22.35;9.45;;;0.60;96.00;;;;;;4946219;28;86725;-86
2021/01/07 04:17:21;;;;;;;22.40;9.75;;;0.60;96.10;;;;;;4942268;28;87072;-88
2021/01/07 04:19:46;;;;;;;26.20;11.13;;;0.50;95.90;;;;;;4943074;28;86515;-87
2021/01/07 04:22:13;;;;;;;25.80;11.23;;;0.60;95.80;;;;;;4936046;28;87887;-86
2021/01/07 04:24:39;;;;;;;24.98;9.98;;;0.60;95.70;;;;;;4939131;28;87397;-85
2021/01/07 04:27:05;;;;;;;18.80;9.23;;;0.60;95.30;;;;;;4926637;28;86516;-85
2021/01/07 04:29:30;;;;;;;22.23;9.07;;;0.60;95.20;;;;;;4923978;28;86998;-86
2021/01/07 04:31:56;;;;;;;17.58;8.27;;;0.60;94.70;;;;;;4920538;28;88239;-86
2021/01/07 04:34:22;;;;;;;11.15;6.05;;;0.50;94.90;;;;;;4925125;28;89268;-87
2021/01/07 04:36:49;;;;;;;18.17;6.50;;;0.50;94.00;;;;;;4918793;28;86922;-88
2021/01/07 04:39:18;;;;;;;20.73;9.27;;;0.40;94.30;;;;;;4916506;28;89124;-87
2021/01/07 04:41:44;;;;;;;21.80;8.15;;;0.40;94.60;;;;;;4939695;28;88201;-87
2021/01/07 04:44:12;;;;;;;15.88;6.60;;;0.40;94.90;;;;;;4931746;28;87120;-87
2021/01/07 04:46:39;;;;;;;14.85;7.13;;;0.30;94.40;;;;;;4940443;28;87453;-88
2021/01/07 04:49:06;;;;;;;20.38;8.73;;;0.30;95.00;;;;;;4966061;28;85597;-87
2021/01/07 04:51:32;;;;;;;18.73;9.20;;;0.40;95.20;;;;;;4950044;28;86715;-87
2021/01/07 04:53:57;;;;;;;20.77;9.02;;;0.40;95.50;;;;;;4950118;28;87395;-84
2021/01/07 04:56:24;;;;;;;18.92;9.60;;;0.30;95.40;;;;;;4949501;28;87670;-87
2021/01/07 04:58:50;;;;;;;23.80;10.95;;;0.40;96.00;;;;;;4950189;28;87027;-86
2021/01/07 05:01:16;;;;;;;13.70;6.65;;;0.40;96.10;;;;;;4937903;28;88027;-87
2021/01/07 05:03:46;;;;;;;23.80;10.15;;;0.30;96.40;;;;;;4943003;28;89924;-85
2021/01/07 05:06:13;;;;;;;19.33;8.75;;;0.30;96.60;;;;;;4950152;28;86927;-87
2021/01/07 05:08:38;;;;;;;19.33;8.40;;;0.30;97.20;;;;;;4949174;28;87018;-87
2021/01/07 05:11:04;;;;;;;16.60;8.00;;;;;;;;;;4947962;28;86719;-87
2021/01/07 05:13:31;;;;;;;8.05;5.03;;;0.30;97.10;;;;;;4949261;28;87262;-87
2021/01/07 05:15:56;;;;;;;21.88;9.40;;;0.30;96.20;;;;;;4930839;28;86829;-87
2021/01/07 05:18:22;;;;;;;19.27;8.30;;;0.30;96.20;;;;;;4948607;28;86919;-87
2021/01/07 05:20:48;;;;;;;17.90;8.25;;;0.30;96.10;;;;;;4948424;28;88925;-87
2021/01/07 05:23:13;;;;;;;19.85;8.45;;;0.40;96.30;;;;;;4947649;28;90377;-87
2021/01/07 05:25:43;;;;;;;19.60;8.60;;;0.40;95.40;;;;;;4948268;28;86918;-87
2021/01/07 05:28:09;;;;;;;19.60;8.80;;;0.40;94.70;;;;;;4934099;28;86745;-87
2021/01/07 05:30:35;;;;;;;22.70;9.55;;;0.40;95.00;;;;;;4950917;28;87604;-87
2021/01/07 05:33:06;;;;;;;18.95;8.43;;;0.40;93.80;;;;;;4953872;28;87137;-87
2021/01/07 05:35:32;;;;;;;;;;;0.40;93.80;;;;;;4953746;28;86928;-87
2021/01/07 05:37:59;;;;;;;14.57;7.07;;;0.40;94.50;;;;;;4958149;28;86296;-87
2021/01/07 05:40:26;;;;;;;16.90;8.20;;;0.40;93.10;;;;;;4951642;28;88208;-87
2021/01/07 05:42:56;;;;;;;19.00;9.13;;;0.40;93.00;;;;;;4952271;28;87406;-87
2021/01/07 05:45:22;;;;;;;21.15;9.38;;;0.40;92.80;;;;;;4950533;28;87987;-84
2021/01/07 05:47:52;;;;;;;15.40;6.35;;;0.40;93.00;;;;;;4910468;28;87014;-88
2021/01/07 05:50:20;;;;;;;20.65;7.85;;;0.40;91.80;;;;;;4926933;28;87362;-85
2021/01/07 05:52:48;;;;;;;21.50;9.45;;;0.30;92.30;;;;;;4932568;28;87067;-88
2021/01/07 05:55:17;;;;;;;18.42;7.70;;;0.30;92.50;;;;;;4932074;28;86631;-87
2021/01/07 05:57:43;;;;;;;18.98;8.13;;;0.30;92.40;;;;;;4931266;28;86737;-87
2021/01/07 06:00:15;;;;;;;18.90;7.95;;;0.30;92.90;;;;;;4930870;28;86763;-87
2021/01/07 06:02:43;;;;;;;17.77;7.57;;;0.30;93.10;;;;;;4915613;28;90701;-88
2021/01/07 06:05:11;;;;;;;16.52;8.35;;;0.40;93.20;;;;;;4913861;28;87088;-86
2021/01/07 06:07:38;;;;;;;18.05;7.25;;;0.40;93.00;;;;;;4932214;28;87145;-84
2021/01/07 06:10:07;;;;;;;17.15;7.82;;;0.40;93.30;;;;;;4912986;28;89715;-86
2021/01/07 06:12:33;;;;;;;19.75;8.35;;;0.40;93.80;;;;;;4911425;28;88394;-85
2021/01/07 06:15:08;;;;;;;20.08;9.02;;;0.40;94.00;;;;;;4914627;28;86912;-87
2021/01/07 06:17:36;;;;;;;20.35;8.95;;;0.40;94.50;;;;;;4931620;28;86726;-87
2021/01/07 06:20:10;;;;;;;16.48;7.90;;;0.40;94.50;;;;;;4933134;28;88130;-87
2021/01/07 06:22:39;;;;;;;17.15;8.82;;;0.40;94.80;;;;;;4931231;28;88807;-86
2021/01/07 06:25:10;;;;;;;20.52;9.27;;;0.40;94.60;;;;;;4931220;28;86657;-86
2021/01/07 06:27:37;;;;;;;;;;;0.30;94.90;;;;;;4933382;28;86290;-87
2021/01/07 06:30:05;;;;;;;17.88;8.55;;;0.40;95.00;;;;;;4933340;28;87253;-87
2021/01/07 06:32:31;;;;;;;17.52;8.90;;;0.40;95.00;;;;;;4930891;28;88357;-87
2021/01/07 06:34:58;;;;;;;22.45;9.63;;;0.50;94.50;;;;;;4929510;28;87482;-87
2021/01/07 06:37:34;;;;;;;20.33;9.40;;;0.40;94.80;;;;;;4929207;28;87047;-86
2021/01/07 06:40:02;;;;;;;23.23;9.90;;;0.40;95.50;;;;;;4929778;28;87242;-86
2021/01/07 06:42:28;;;;;;;19.17;8.30;;;0.40;94.60;;;;;;4933184;28;87076;-87
2021/01/07 06:44:57;;;;;;;15.38;6.15;;;0.30;94.80;;;;;;4931495;28;86910;-87
2021/01/07 06:47:23;;;;;;;19.67;7.75;;;0.20;94.70;;;;;;4958373;28;87025;-87
2021/01/07 06:49:49;;;;;;;14.95;6.32;;;0.10;94.60;;;;;;4952487;28;87652;-86
2021/01/07 06:52:16;;;;;;;19.50;8.30;;;0.10;94.80;;;;;;4950772;28;87457;-85
2021/01/07 06:54:42;;;;;;;17.63;8.25;;;0.10;95.10;;;;;;4949093;28;87123;-86
2021/01/07 06:57:10;;;;;;;17.33;7.90;;;0.20;94.80;;;;;;4951940;28;86911;-86
2021/01/07 06:59:36;;;;;;;16.23;7.93;;;0.20;94.70;;;;;;4959895;28;88349;-87
2021/01/07 07:02:05;;;;;;;12.13;5.55;;;0.20;93.90;;;;;;4961662;28;88410;-88
2021/01/07 07:04:32;;;;;;;18.80;7.90;;;0.10;92.90;;;;;;4953375;28;87005;-88
2021/01/07 07:07:06;;;;;;;14.07;7.00;;;0.10;92.30;;;;;;4954828;28;87113;-88
2021/01/07 07:09:39;;;;;;;18.42;8.13;;;0.10;92.20;;;;;;4961385;28;88142;-88
2021/01/07 07:12:06;;;;;;;10.52;5.95;;;0.20;92.00;;;;;;4951999;28;88203;-87
2021/01/07 07:14:33;;;;;;;10.48;4.90;;;0.20;91.00;;;;;;4950989;28;87036;-88
2021/01/07 07:17:07;;;;;;;17.88;8.27;;;0.20;93.40;;;;;;4947307;28;85386;-89
2021/01/07 07:19:37;;;;;;;16.15;7.35;;;0.10;90.70;;;;;;4934904;28;89171;-87
2021/01/07 07:22:09;;;;;;;14.45;7.00;;;0.10;90.90;;;;;;4935588;28;86467;-85
2021/01/07 07:24:49;;;;;;;15.57;7.60;;;0.10;90.70;;;;;;4937479;28;87639;-86
2021/01/07 07:27:20;;;;;;;16.58;7.20;;;0.20;91.50;;;;;;4948400;28;87046;-86
2021/01/07 07:29:49;;;;;;;14.77;7.97;;;0.10;91.60;;;;;;4932164;28;88136;-88
2021/01/07 07:32:26;;;;;;;12.95;6.60;;;0.20;92.00;;;;;;4943379;28;87661;-87
2021/01/07 07:34:54;;;;;;;23.30;8.15;;;0.10;92.20;;;;;;4949119;28;87245;-86
2021/01/07 07:37:24;;;;;;;14.38;6.68;;;0.10;92.70;;;;;;4946926;28;87103;-86
2021/01/07 07:39:57;;;;;;;19.27;7.23;;;0.10;92.50;;;;;;4951163;28;87751;-86
2021/01/07 07:42:26;;;;;;;16.27;7.45;;;0.20;92.30;;;;;;4943333;28;86430;-87
2021/01/07 07:44:59;;;;;;;14.20;7.05;;;0.20;92.00;;;;;;4957411;28;86190;-87
2021/01/07 07:47:26;;;;;;;18.65;7.82;;;0.30;90.40;;;;;;4966405;28;86417;-84
2021/01/07 07:49:56;;;;;;;12.50;6.85;;;0.30;90.50;;;;;;4950170;28;89194;-83
2021/01/07 07:52:25;;;;;;;16.50;6.78;;;0.40;90.40;;;;;;4968689;28;87615;-86
2021/01/07 07:55:04;;;;;;;7.88;4.60;;;0.40;90.30;;;;;;4968336;28;86163;-86
2021/01/07 07:57:32;;;;;;;16.73;6.47;;;0.40;89.70;;;;;;4969544;28;87443;-86
2021/01/07 08:00:18;;;;;;;15.10;7.03;;;0.40;90.00;;;;;;4936762;28;88317;-87
2021/01/07 08:02:44;;;;;;;9.10;4.72;;;0.40;88.80;;;;;;4950110;28;87222;-89
2021/01/07 08:05:26;;;;;;;16.30;6.63;;;0.40;88.60;;;;;;4950165;28;86878;-88
2021/01/07 08:07:53;;;;;;;14.88;6.53;;;0.40;88.10;;;;;;4944030;28;86543;-88
2021/01/07 08:10:18;;;;;;;13.75;6.45;;;0.40;87.30;;;;;;4922800;28;89355;-89
2021/01/07 08:12:44;;;;;;;16.30;7.40;;;0.40;87.70;;;;;;4949001;28;86991;-89
2021/01/07 08:15:10;;;;;;;13.77;6.32;;;0.50;88.30;;;;;;4950677;28;87832;-88
2021/01/07 08:17:36;;;;;;;16.00;6.78;;;0.50;86.80;;;;;;4950236;28;87024;-88
2021/01/07 08:20:03;;;;;;;14.73;6.90;;;0.50;87.10;;;;;;4950994;28;87510;-89
2021/01/07 08:22:29;;;;;;;16.85;7.20;;;0.40;88.40;;;;;;4949932;28;87293;-89
2021/01/07 08:24:58;;;;;;;13.27;6.43;;;0.40;89.10;;;;;;4948507;28;86717;-85
2021/01/07 08:27:31;;;;;;;14.20;8.38;;;0.40;87.00;;;;;;4949934;28;87479;-88
2021/01/07 08:30:00;;;;;;;13.85;7.35;;;0.40;88.20;;;;;;4949423;28;88107;-89
2021/01/07 08:32:35;;;;;;;14.27;6.60;;;0.40;88.70;;;;;;4941232;28;88132;-87
2021/01/07 08:35:07;;;;;;;13.15;5.80;;;0.40;88.50;;;;;;4957971;28;87313;-87
2021/01/07 08:37:34;;;;;;;11.98;6.28;;;0.40;88.80;;;;;;4952011;28;87223;-88
2021/01/07 08:40:06;;;;;;;15.23;7.82;;;0.30;89.00;;;;;;4947935;28;88178;-87
2021/01/07 08:42:39;;;;;;;17.70;7.43;;;0.40;90.00;;;;;;4948049;28;87987;-88
2021/01/07 08:45:09;;;;;;;18.85;8.05;;;0.30;89.90;;;;;;4942981;28;86762;-87
2021/01/07 08:47:36;;;;;;;13.27;6.63;;;0.40;89.90;;;;;;4929969;28;87205;-87
2021/01/07 08:50:10;;;;;;;13.93;6.78;;;0.40;89.60;;;;;;4940457;28;87721;-87
2021/01/07 08:52:58;;;;;;;15.88;7.55;;;0.50;90.00;;;;;;4963543;28;87429;-85
2021/01/07 08:55:44;;;;;;;18.38;7.13;;;0.50;90.40;;;;;;4961699;28;86881;-84
2021/01/07 08:58:11;;;;;;;13.02;7.50;;;0.50;90.30;;;;;;4948881;28;86846;-88
2021/01/07 09:00:36;;;;;;;17.80;7.50;;;0.50;90.90;;;;;;4951084;28;87001;-88
2021/01/07 09:03:03;;;;;;;16.60;7.90;;;0.50;90.80;;;;;;4951854;28;87322;-89
2021/01/07 09:05:29;;;;;;;19.33;7.85;;;0.50;90.60;;;;;;4953224;28;87070;-86
2021/01/07 09:08:08;;;;;;;15.43;7.22;;;0.60;90.80;;;;;;4933449;28;87201;-88
2021/01/07 09:10:35;;;;;;;14.93;6.53;;;0.60;90.70;;;;;;4951329;28;87695;-86
2021/01/07 09:13:25;;;;;;;19.52;7.25;;;0.70;91.20;;;;;;4951383;28;87298;-88
2021/01/07 09:15:51;;;;;;;17.02;7.07;;;0.80;91.00;;;;;;4951429;28;86675;-88
2021/01/07 09:18:20;;;;;;;16.50;5.57;;;0.80;91.00;;;;;;4951193;28;86300;-88
2021/01/07 09:20:46;;;;;;;15.15;7.05;;;0.80;91.40;;;;;;4955100;28;87773;-88
2021/01/07 09:23:16;;;;;;;17.52;7.38;;;0.80;91.10;;;;;;4946245;28;87441;-87
2021/01/07 09:25:44;;;;;;;14.80;7.25;;;0.90;91.40;;;;;;4949378;28;86911;-88
2021/01/07 09:28:13;;;;;;;16.90;6.80;;;1.00;90.60;;;;;;4954563;28;86989;-87
2021/01/07 09:30:39;;;;;;;16.52;7.57;;;1.10;88.00;;;;;;4939525;28;89152;-87
2021/01/07 09:33:04;;;;;;;17.63;3.75;;;1.20;87.60;;;;;;4955261;28;88363;-87
2021/01/07 09:35:30;;;;;;;14.07;6.35;;;1.30;85.90;;;;;;4940834;28;86562;-88
2021/01/07 09:37:56;;;;;;;9.02;4.22;;;1.30;85.60;;;;;;4906951;28;87160;-88
2021/01/07 09:40:23;;;;;;;10.32;4.80;;;1.30;82.80;;;;;;4933233;28;89087;-87
2021/01/07 09:42:49;;;;;;;10.30;4.93;;;1.20;80.70;;;;;;4957764;28;87668;-89
2021/01/07 09:45:15;;;;;;;8.77;4.00;;;1.10;79.20;;;;;;4951899;28;86470;-88
2021/01/07 09:47:41;;;;;;;10.88;5.15;;;1.10;79.80;;;;;;4928575;28;86556;-88
2021/01/07 09:50:09;;;;;;;7.45;3.38;;;1.10;80.40;;;;;;4949994;28;88718;-88
2021/01/07 09:52:36;;;;;;;7.70;3.35;;;1.00;80.20;;;;;;4949454;28;87345;-88
2021/01/07 09:55:04;;;;;;;9.18;4.55;;;0.90;80.60;;;;;;4928388;28;87343;-87
2021/01/07 09:57:32;;;;;;;11.60;5.53;;;0.90;81.60;;;;;;4955852;28;87153;-88
2021/01/07 09:59:57;;;;;;;8.27;3.45;;;1.00;81.60;;;;;;4932355;28;86899;-87
2021/01/07 10:02:23;;;;;;;4.50;2.95;;;1.00;80.80;;;;;;4963381;28;89666;-86
2021/01/07 10:04:49;;;;;;;8.05;3.88;;;1.00;80.70;;;;;;4950216;28;86335;-86
2021/01/07 10:07:16;;;;;;;7.82;4.47;;;1.30;83.60;;;;;;4966677;28;86295;-86
2021/01/07 10:09:42;;;;;;;7.55;5.72;;;1.20;80.30;;;;;;4949034;28;88598;-85
2021/01/07 10:12:09;;;;;;;14.95;7.22;;;1.00;83.00;;;;;;4941971;28;89044;-88
2021/01/07 10:14:35;;;;;;;7.78;4.28;;;1.30;81.00;;;;;;4957187;28;86214;-87
2021/01/07 10:17:05;;;;;;;13.48;6.07;;;1.50;80.60;;;;;;4947468;28;86522;-84
2021/01/07 10:19:34;;;;;;;6.13;3.67;;;1.70;80.20;;;;;;4959814;28;88397;-85
2021/01/07 10:22:04;;;;;;;11.68;4.70;;;2.10;79.00;;;;;;4979340;28;88341;-87
2021/01/07 10:24:32;;;;;;;10.43;5.32;;;2.40;77.30;;;;;;4956524;28;87084;-87
2021/01/07 10:27:03;;;;;;;15.20;8.32;;;2.50;76.70;;;;;;4953890;28;86355;-88
2021/01/07 10:29:34;;;;;;;11.18;6.28;;;2.70;78.80;;;;;;4956304;28;88034;-85
2021/01/07 10:32:04;;;;;;;10.23;7.10;;;2.80;74.50;;;;;;4955236;28;86995;-82
2021/01/07 10:34:33;;;;;;;12.20;6.97;;;3.20;74.40;;;;;;4937024;28;86579;-87
2021/01/07 10:37:02;;;;;;;11.00;6.13;;;3.30;73.10;;;;;;4957360;28;86692;-86
2021/01/07 10:39:31;;;;;;;14.02;7.13;;;3.20;73.10;;;;;;4963237;28;87656;-86
2021/01/07 10:41:57;;;;;;;12.57;6.40;;;3.20;73.60;;;;;;4953586;28;90857;-88
2021/01/07 10:44:25;;;;;;;11.85;5.75;;;3.50;74.20;;;;;;4943699;28;87925;-85
2021/01/07 10:46:56;;;;;;;11.35;5.90;;;3.80;71.00;;;;;;4959272;28;87176;-87
2021/01/07 10:49:25;;;;;;;;;;;4.20;69.40;;;;;;4955101;28;87699;-86
2021/01/07 10:52:12;;;;;;;7.40;3.97;;;4.40;69.10;;;;;;4936535;28;87374;-85
2021/01/07 10:54:37;;;;;;;13.93;7.70;;;4.30;66.00;;;;;;4952595;28;87093;-86
2021/01/07 10:57:36;;;;;;;14.40;7.53;;;5.20;65.40;;;;;;4947287;28;86961;-86
2021/01/07 11:00:06;;;;;;;11.65;7.00;;;5.60;63.20;;;;;;4953802;28;87752;-88
2021/01/07 11:02:32;;;;;;;11.25;7.20;;;;;;;;;;4933053;28;89921;-89
2021/01/07 11:05:17;;;;;;;10.07;6.70;;;6.70;59.50;;;;;;4920603;28;86734;-87
2021/01/07 11:08:19;;;;;;;10.15;6.57;;;6.60;59.40;;;;;;4956583;28;86865;-86
2021/01/07 11:10:51;;;;;;;10.30;6.25;;;6.90;58.50;;;;;;4904917;28;87811;-88
2021/01/07 11:13:31;;;;;;;11.23;7.10;;;7.70;58.40;;;;;;4958617;28;88328;-88
2021/01/07 11:16:00;;;;;;;9.93;7.05;;;8.10;56.30;;;;;;4959744;28;87086;-87
2021/01/07 11:18:48;;;;;;;10.63;6.15;;;8.00;56.70;;;;;;4957149;28;86927;-87
2021/01/07 11:21:20;;;;;;;10.85;6.07;;;8.90;54.50;;;;;;4944770;28;90224;-88
2021/01/07 11:23:46;;;;;;;11.45;7.35;;;;;;;;;;4934909;28;90705;-87
2021/01/07 11:26:14;;;;;;;11.48;6.82;;;10.20;50.60;;;;;;4957212;28;86837;-87
2021/01/07 11:28:41;;;;;;;12.10;7.32;;;10.10;51.20;;;;;;4953462;28;87123;-87
2021/01/07 11:31:07;;;;;;;10.65;7.30;;;;;;;;;;4953182;28;88103;-88
2021/01/07 11:33:33;;;;;;;10.57;6.65;;;;;;;;;;4951453;28;87224;-87
2021/01/07 11:36:05;;;;;;;10.80;6.85;;;10.00;49.60;;;;;;4956357;28;87878;-87
2021/01/07 11:38:38;;;;;;;10.75;6.60;;;10.40;45.80;;;;;;4959579;28;87186;-87
2021/01/07 11:41:30;;;;;;;12.32;7.45;;;9.40;48.20;;;;;;4954394;28;86760;-87
2021/01/07 11:44:13;;;;;;;10.27;6.70;;;9.10;49.30;;;;;;4948073;28;90728;-86
2021/01/07 11:46:41;;;;;;;12.45;7.28;;;8.70;49.20;;;;;;4937535;28;86534;-87
2021/01/07 11:49:17;;;;;;;13.10;7.40;;;8.40;50.60;;;;;;4914081;28;87128;-88
2021/01/07 11:51:49;;;;;;;9.48;6.22;;;8.40;50.90;;;;;;4914509;28;89143;-87
2021/01/07 11:54:16;;;;;;;12.30;6.80;;;;;;;;;;4926410;28;87381;-88
2021/01/07 11:56:53;;;;;;;10.10;7.10;;;8.70;50.10;;;;;;4929088;28;86810;-88
2021/01/07 11:59:21;;;;;;;10.95;6.28;;;8.90;50.50;;;;;;4927902;28;86271;-88
2021/01/07 12:01:49;;;;;;;11.52;6.75;;;9.20;49.50;;;;;;4910652;28;90101;-86
2021/01/07 12:04:16;;;;;;;9.80;7.22;;;;;;;;;;4907726;28;90473;-85
2021/01/07 12:07:24;;;;;;;13.13;6.70;;;8.70;51.60;;;;;;4929282;28;86964;-85
2021/01/07 12:09:50;;;;;;;10.30;8.07;;;8.60;50.50;;;;;;4921389;28;87383;-86
2021/01/07 12:12:16;;;;;;;11.30;7.28;;;8.40;52.10;;;;;;4911442;28;87550;-87
2021/01/07 12:14:52;;;;;;;13.18;7.68;;;8.30;51.80;;;;;;4912677;28;88737;-86
2021/01/07 12:17:18;;;;;;;10.77;7.57;;;7.90;50.80;;;;;;4928179;28;87148;-86
2021/01/07 12:19:44;;;;;;;12.98;8.10;;;7.80;53.40;;;;;;4932699;28;86066;-86
2021/01/07 12:22:14;;;;;;;11.93;8.13;;;7.70;53.60;;;;;;4930991;28;87223;-86
2021/01/07 12:24:42;;;;;;;12.70;7.70;;;7.80;54.10;;;;;;4930084;28;86943;-86
2021/01/07 12:27:09;;;;;;;10.70;7.13;;;7.50;53.10;;;;;;4914592;28;87139;-86
2021/01/07 12:29:41;;;;;;;11.10;6.53;;;7.50;54.20;;;;;;4930841;28;87022;-83
2021/01/07 12:32:31;;;;;;;11.65;7.53;;;7.40;53.70;;;;;;4929822;28;86789;-85
2021/01/07 12:35:03;;;;;;;9.57;7.22;;;6.70;52.30;;;;;;4929476;28;87180;-84
2021/01/07 12:37:37;;;;;;;11.00;7.20;;;6.60;55.20;;;;;;4931125;28;86471;-85
2021/01/07 12:40:07;;;;;;;11.65;7.72;;;6.40;57.10;;;;;;4929656;28;86996;-87
2021/01/07 12:42:35;;;;;;;10.85;7.78;;;6.40;57.60;;;;;;4930050;28;87125;-87
2021/01/07 12:45:03;;;;;;;10.98;7.00;;;6.50;54.70;;;;;;4930241;28;86699;-87
2021/01/07 12:47:29;;;;;;;15.05;7.70;;;;;;;;;;4929054;28;87147;-87
2021/01/07 12:50:01;;;;;;;13.18;7.82;;;6.60;54.70;;;;;;4930883;28;86929;-87
2021/01/07 12:52:30;;;;;;;11.73;6.32;;;6.60;54.80;;;;;;4929496;28;89551;-87
2021/01/07 12:54:57;;;;;;;10.73;6.97;;;6.60;55.20;;;;;;4944238;28;88293;-87
2021/01/07 12:57:26;;;;;;;10.25;6.32;;;6.60;55.80;;;;;;4931167;28;86858;-87
2021/01/07 12:59:52;;;;;;;11.90;7.28;;;6.60;56.50;;;;;;4930367;28;86910;-87
2021/01/07 13:02:45;;;;;;;12.35;8.82;;;6.40;57.90;;;;;;4929475;28;87303;-87
2021/01/07 13:05:38;;;;;;;14.88;8.35;;;6.60;58.80;;;;;;4925143;28;87173;-87
2021/01/07 13:08:07;;;;;;;14.10;8.93;;;6.90;60.00;;;;;;4920524;28;86749;-87
2021/01/07 13:10:37;;;;;;;16.83;7.90;;;6.90;60.50;;;;;;4928859;28;87003;-85
2021/01/07 13:13:04;;;;;;;14.13;7.68;;;7.10;61.00;;;;;;4938320;28;87183;-87
2021/01/07 13:15:30;;;;;;;15.82;9.25;;;7.40;60.10;;;;;;4943917;28;87956;-87
2021/01/07 13:17:56;;;;;;;15.38;8.75;;;7.40;60.50;;;;;;4931520;28;87032;-87
2021/01/07 13:20:22;;;;;;;16.40;9.65;;;7.40;60.30;;;;;;4931910;28;86851;-86
2021/01/07 13:22:51;;;;;;;19.30;11.13;;;7.30;63.10;;;;;;4931064;28;86663;-85
2021/01/07 13:25:23;;;;;;;16.73;10.77;;;7.50;63.70;;;;;;4930161;28;87469;-86
2021/01/07 13:27:49;;;;;;;16.05;9.90;;;;;;;;;;4913224;28;86605;-86
2021/01/07 13:30:17;;;;;;;15.90;9.77;;;6.90;63.30;;;;;;4933397;28;86849;-86
2021/01/07 13:32:47;;;;;;;16.98;10.45;;;7.10;63.90;;;;;;4938243;28;88854;-86
2021/01/07 13:35:17;;;;;;;12.52;8.15;;;7.00;64.30;;;;;;4938231;28;86567;-87
2021/01/07 13:37:47;;;;;;;15.10;9.93;;;6.80;63.70;;;;;;4941340;28;86963;-86
2021/01/07 13:40:15;;;;;;;13.43;9.38;;;6.90;64.40;;;;;;4938958;28;86701;-87
2021/01/07 13:42:43;;;;;;;17.50;10.10;;;;;;;;;;4939523;28;87570;-85
2021/01/07 13:45:09;;;;;;;20.67;10.80;;;6.70;63.70;;;;;;4934876;28;87662;-87
2021/01/07 13:47:38;;;;;;;18.80;10.90;;;6.50;64.60;;;;;;4939330;28;87097;-86
2021/01/07 13:50:10;;;;;;;17.33;10.07;;;6.50;65.50;;;;;;4952886;28;87091;-86
2021/01/07 13:52:39;;;;;;;20.00;11.48;;;6.60;67.00;;;;;;4950991;28;87281;-87
2021/01/07 13:55:06;;;;;;;17.73;10.07;;;6.90;67.70;;;;;;4952091;28;86577;-85
2021/01/07 13:57:33;;;;;;;16.25;10.50;;;6.60;67.30;;;;;;4918046;28;87029;-87
2021/01/07 13:59:59;;;;;;;15.43;9.63;;;6.60;67.00;;;;;;4951883;28;86231;-87
2021/01/07 14:02:26;;;;;;;17.95;10.13;;;6.60;67.40;;;;;;4952435;28;87074;-87
2021/01/07 14:04:52;;;;;;;15.48;10.15;;;;;;;;;;4915260;28;90883;-86
2021/01/07 14:07:29;;;;;;;15.13;9.93;;;6.50;69.30;;;;;;4951957;28;87399;-86
2021/01/07 14:09:59;;;;;;;17.67;10.10;;;6.60;69.80;;;;;;4952663;28;87285;-87
2021/01/07 14:12:30;;;;;;;12.70;8.50;;;6.50;70.30;;;;;;4941218;28;88484;-86
2021/01/07 14:14:57;;;;;;;17.83;10.10;;;6.20;70.30;;;;;;4946579;28;89505;-86
2021/01/07 14:17:24;;;;;;;18.77;10.98;;;;;;;;;;4953047;28;87013;-86
2021/01/07 14:19:53;;;;;;;18.40;10.70;;;6.10;71.80;;;;;;4951503;28;87132;-85
2021/01/07 14:22:21;;;;;;;16.65;10.70;;;6.00;72.10;;;;;;4953859;28;87219;-86
2021/01/07 14:24:48;;;;;;;17.80;10.15;;;6.00;72.50;;;;;;4952408;28;87576;-86
2021/01/07 14:27:33;;;;;;;16.48;10.15;;;5.90;72.90;;;;;;4954375;28;86622;-85
2021/01/07 14:30:05;;;;;;;17.40;11.02;;;5.60;73.40;;;;;;4953577;28;86899;-86
2021/01/07 14:32:34;;;;;;;18.10;10.73;;;5.70;74.00;;;;;;4931396;28;93798;-86
2021/01/07 14:35:08;;;;;;;18.40;11.00;;;5.70;74.90;;;;;;4953749;28;87207;-85
2021/01/07 14:37:39;;;;;;;19.83;11.25;;;5.70;74.20;;;;;;4957496;28;86822;-86
2021/01/07 14:40:08;;;;;;;18.67;11.32;;;5.90;74.80;;;;;;4952022;28;86918;-86
2021/01/07 14:42:36;;;;;;;16.65;10.27;;;5.70;74.90;;;;;;4952065;28;89070;-87
2021/01/07 14:45:03;;;;;;;19.08;10.57;;;5.60;75.10;;;;;;4956617;28;87101;-87
2021/01/07 14:47:32;;;;;;;19.00;10.70;;;5.80;75.80;;;;;;4956521;28;87279;-86
2021/01/07 14:50:02;;;;;;;21.65;11.07;;;5.50;75.90;;;;;;4934356;28;88161;-85
2021/01/07 14:52:30;;;;;;;19.90;11.60;;;5.40;76.00;;;;;;4934490;28;90020;-86
2021/01/07 14:55:02;;;;;;;24.70;11.40;;;5.40;76.50;;;;;;4955076;28;87047;-85
2021/01/07 14:57:53;;;;;;;19.55;10.38;;;5.40;77.90;;;;;;4959862;28;87878;-85
2021/01/07 15:00:52;;;;;;;17.45;11.18;;;5.40;77.60;;;;;;4961285;28;86104;-85
2021/01/07 15:03:29;;;;;;;20.92;12.02;;;5.20;78.90;;;;;;4949762;28;87739;-86
2021/01/07 15:06:20;;;;;;;20.38;12.30;;;5.50;79.30;;;;;;4954730;28;86927;-86
2021/01/07 15:09:01;;;;;;;21.40;11.27;;;5.10;79.50;;;;;;4961718;28;86885;-85
2021/01/07 15:11:35;;;;;;;21.13;11.55;;;5.00;79.70;;;;;;4936134;28;87804;-85
2021/01/07 15:14:05;;;;;;;20.05;11.98;;;4.90;79.70;;;;;;4939614;28;86851;-86
2021/01/07 15:16:39;;;;;;;26.30;13.30;;;4.90;80.20;;;;;;4952245;28;87505;-87
2021/01/07 15:19:19;;;;;;;27.95;14.02;;;4.90;80.40;;;;;;4954483;28;87004;-85
2021/01/07 15:22:08;;;;;;;24.63;12.70;;;4.90;80.90;;;;;;4951565;28;86366;-85
2021/01/07 15:24:49;;;;;;;26.42;12.75;;;4.90;81.10;;;;;;4948233;28;89726;-87
2021/01/07 15:27:16;;;;;;;23.10;12.05;;;4.90;80.70;;;;;;4949909;28;88263;-86
2021/01/07 15:29:42;;;;;;;22.55;12.80;;;;;;;;;;4951933;28;86838;-85
2021/01/07 15:32:18;;;;;;;25.70;13.07;;;4.80;81.00;;;;;;4954504;28;87639;-86
2021/01/07 15:34:51;;;;;;;27.48;13.95;;;4.70;82.60;;;;;;4934956;28;88368;-86
2021/01/07 15:37:38;;;;;;;19.45;11.23;;;4.60;83.00;;;;;;4949896;28;87733;-85
2021/01/07 15:40:43;;;;;;;18.17;10.60;;;4.40;78.10;;;;;;4932279;28;86776;-85
2021/01/07 15:43:43;;;;;;;16.02;9.32;;;4.50;76.80;;;;;;4939434;28;86192;-87
2021/01/07 15:46:37;;;;;;;15.38;8.55;;;4.30;76.40;;;;;;4961420;28;87862;-86
2021/01/07 15:49:29;;;;;;;15.70;9.25;;;4.10;76.60;;;;;;4960496;28;86863;-89
2021/01/07 15:52:41;;;;;;;16.02;10.25;;;4.20;77.70;;;;;;4953588;28;87313;-88
2021/01/07 15:55:22;;;;;;;13.15;7.15;;;4.10;77.10;;;;;;4960764;28;86938;-87
2021/01/07 15:57:57;;;;;;;13.05;7.47;;;4.10;76.80;;;;;;4944041;28;89060;-86
2021/01/07 16:00:34;;;;;;;15.77;7.70;;;4.10;77.60;;;;;;4969175;28;88962;-88
2021/01/07 16:03:03;;;;;;;17.77;9.68;;;4.00;74.60;;;;;;4943257;28;87837;-87
2021/01/07 16:05:31;;;;;;;16.50;9.80;;;4.00;75.70;;;;;;4958834;28;86107;-87
2021/01/07 16:08:00;;;;;;;12.90;7.85;;;4.00;76.20;;;;;;4941770;28;87981;-87
2021/01/07 16:10:29;;;;;;;15.38;8.68;;;4.00;76.50;;;;;;4966212;28;87032;-85
2021/01/07 16:12:56;;;;;;;14.93;7.82;;;4.00;76.10;;;;;;4965261;28;86213;-83
2021/01/07 16:15:23;;;;;;;13.38;7.55;;;4.00;76.40;;;;;;4966272;28;86321;-90
2021/01/07 16:17:49;;;;;;;16.42;9.27;;;;;;;;;;4979322;28;87954;-87
2021/01/07 16:20:18;;;;;;;15.70;8.98;;;4.10;76.00;;;;;;4972316;28;88346;-89
2021/01/07 16:22:45;;;;;;;16.35;9.30;;;3.80;75.80;;;;;;4951416;28;86247;-87
2021/01/07 16:25:14;;;;;;;15.55;8.52;;;3.90;76.40;;;;;;4955132;28;86690;-88
2021/01/07 16:27:41;;;;;;;18.15;9.70;;;3.90;76.00;;;;;;4941633;28;89603;-87
2021/01/07 16:30:10;;;;;;;17.08;9.20;;;3.80;76.50;;;;;;4934756;28;89891;-89
2021/01/07 16:32:36;;;;;;;15.30;9.55;;;3.80;76.20;;;;;;4954373;28;86558;-85
2021/01/07 16:35:04;;;;;;;16.92;8.82;;;3.90;76.60;;;;;;4962077;28;85833;-85
2021/01/07 16:37:32;;;;;;;17.33;10.25;;;3.90;76.00;;;;;;4952179;28;86985;-84
2021/01/07 16:40:01;;;;;;;17.67;9.52;;;4.00;75.70;;;;;;4951978;28;87177;-87
2021/01/07 16:42:30;;;;;;;15.55;8.35;;;3.90;75.90;;;;;;4952868;28;87609;-85
2021/01/07 16:44:55;;;;;;;16.70;8.90;;;3.90;76.30;;;;;;4962569;28;86948;-88
2021/01/07 16:47:22;;;;;;;16.52;9.13;;;3.70;76.00;;;;;;4949699;28;88675;-86
2021/01/07 16:49:48;;;;;;;16.85;9.85;;;;;;;;;;4937657;28;88652;-87
2021/01/07 16:52:14;;;;;;;20.08;9.18;;;3.70;76.30;;;;;;4953158;28;86238;-87
2021/01/07 16:54:42;;;;;;;18.95;9.60;;;3.60;77.40;;;;;;4959831;28;86969;-87